sensor_id;sensor_type;location;lat;lon;timestamp;P1;durP1;ratioP1;P2;durP2;ratioP2
49688;SDS011;70518;51.400;7.428;2023-09-08T00:01:56;4.05;;;3.00;;
49688;SDS011;70518;51.400;7.428;2023-09-08T00:04:21;7.72;;;3.83;;
49688;SDS011;70518;51.400;7.428;2023-09-08T00:06:48;5.38;;;3.00;;
49688;SDS011;70518;51.400;7.428;2023-09-08T00:09:13;5.63;;;3.33;;
49688;SDS011;70518;51.400;7.428;2023-09-08T00:11:39;6.15;;;3.20;;
49688;SDS011;70518;51.400;7.428;2023-09-08T00:14:04;5.55;;;2.90;;
49688;SDS011;70518;51.400;7.428;2023-09-08T00:16:29;5.88;;;3.50;;
49688;SDS011;70518;51.400;7.428;2023-09-08T00:18:55;3.95;;;3.30;;
49688;SDS011;70518;51.400;7.428;2023-09-08T00:21:22;5.93;;;3.30;;
49688;SDS011;70518;51.400;7.428;2023-09-08T00:23:47;5.53;;;3.10;;
49688;SDS011;70518;51.400;7.428;2023-09-08T00:26:12;6.20;;;3.10;;
49688;SDS011;70518;51.400;7.428;2023-09-08T00:28:38;3.15;;;2.22;;
49688;SDS011;70518;51.400;7.428;2023-09-08T00:31:03;3.13;;;2.53;;
49688;SDS011;70518;51.400;7.428;2023-09-08T00:33:29;5.28;;;2.90;;
49688;SDS011;70518;51.400;7.428;2023-09-08T00:35:56;5.32;;;3.15;;
49688;SDS011;70518;51.400;7.428;2023-09-08T00:38:22;6.25;;;3.40;;
49688;SDS011;70518;51.400;7.428;2023-09-08T00:40:48;5.65;;;2.92;;
49688;SDS011;70518;51.400;7.428;2023-09-08T00:43:13;5.32;;;3.10;;
49688;SDS011;70518;51.400;7.428;2023-09-08T00:45:40;3.92;;;3.03;;
49688;SDS011;70518;51.400;7.428;2023-09-08T00:48:07;4.63;;;3.15;;
49688;SDS011;70518;51.400;7.428;2023-09-08T00:50:33;5.00;;;3.13;;
49688;SDS011;70518;51.400;7.428;2023-09-08T00:52:59;4.90;;;3.00;;
49688;SDS011;70518;51.400;7.428;2023-09-08T00:55:25;4.05;;;3.28;;
49688;SDS011;70518;51.400;7.428;2023-09-08T00:57:50;4.38;;;3.42;;
49688;SDS011;70518;51.400;7.428;2023-09-08T01:00:16;4.40;;;2.90;;
49688;SDS011;70518;51.400;7.428;2023-09-08T01:02:41;6.10;;;2.90;;
49688;SDS011;70518;51.400;7.428;2023-09-08T01:05:06;5.53;;;3.40;;
49688;SDS011;70518;51.400;7.428;2023-09-08T01:07:32;5.28;;;3.13;;
49688;SDS011;70518;51.400;7.428;2023-09-08T01:09:58;5.40;;;2.80;;
49688;SDS011;70518;51.400;7.428;2023-09-08T01:12:29;4.57;;;2.90;;
49688;SDS011;70518;51.400;7.428;2023-09-08T01:14:54;3.40;;;3.10;;
49688;SDS011;70518;51.400;7.428;2023-09-08T01:17:20;3.83;;;2.97;;
49688;SDS011;70518;51.400;7.428;2023-09-08T01:19:45;4.97;;;3.55;;
49688;SDS011;70518;51.400;7.428;2023-09-08T01:27:32;6.30;;;2.85;;
49688;SDS011;70518;51.400;7.428;2023-09-08T01:30:00;9.25;;;3.30;;
49688;SDS011;70518;51.400;7.428;2023-09-08T01:32:27;3.97;;;3.03;;
49688;SDS011;70518;51.400;7.428;2023-09-08T01:34:53;6.78;;;3.30;;
49688;SDS011;70518;51.400;7.428;2023-09-08T01:37:22;6.30;;;3.65;;
49688;SDS011;70518;51.400;7.428;2023-09-08T01:39:47;3.72;;;3.10;;
49688;SDS011;70518;51.400;7.428;2023-09-08T01:42:13;4.50;;;3.05;;
49688;SDS011;70518;51.400;7.428;2023-09-08T01:44:38;4.22;;;3.55;;
49688;SDS011;70518;51.400;7.428;2023-09-08T01:47:03;5.03;;;3.05;;
49688;SDS011;70518;51.400;7.428;2023-09-08T01:49:29;5.57;;;3.42;;
49688;SDS011;70518;51.400;7.428;2023-09-08T01:51:54;5.88;;;3.85;;
49688;SDS011;70518;51.400;7.428;2023-09-08T01:54:21;4.18;;;3.55;;
49688;SDS011;70518;51.400;7.428;2023-09-08T01:56:46;5.60;;;3.55;;
49688;SDS011;70518;51.400;7.428;2023-09-08T01:59:11;4.50;;;3.08;;
49688;SDS011;70518;51.400;7.428;2023-09-08T02:01:37;4.30;;;3.13;;
49688;SDS011;70518;51.400;7.428;2023-09-08T02:04:02;4.82;;;3.53;;
49688;SDS011;70518;51.400;7.428;2023-09-08T02:06:27;3.35;;;3.05;;
49688;SDS011;70518;51.400;7.428;2023-09-08T02:08:53;4.15;;;2.92;;
49688;SDS011;70518;51.400;7.428;2023-09-08T02:11:18;5.18;;;3.60;;
49688;SDS011;70518;51.400;7.428;2023-09-08T02:13:43;3.75;;;3.42;;
49688;SDS011;70518;51.400;7.428;2023-09-08T02:16:14;5.97;;;3.72;;
49688;SDS011;70518;51.400;7.428;2023-09-08T02:18:44;5.32;;;3.80;;
49688;SDS011;70518;51.400;7.428;2023-09-08T02:21:10;3.35;;;2.85;;
49688;SDS011;70518;51.400;7.428;2023-09-08T02:23:35;5.25;;;4.13;;
49688;SDS011;70518;51.400;7.428;2023-09-08T02:26:01;7.03;;;3.67;;
49688;SDS011;70518;51.400;7.428;2023-09-08T02:28:26;6.85;;;4.07;;
49688;SDS011;70518;51.400;7.428;2023-09-08T02:30:52;4.43;;;3.58;;
49688;SDS011;70518;51.400;7.428;2023-09-08T02:33:17;6.80;;;3.45;;
49688;SDS011;70518;51.400;7.428;2023-09-08T02:35:42;6.90;;;3.40;;
49688;SDS011;70518;51.400;7.428;2023-09-08T02:38:08;7.82;;;3.47;;
49688;SDS011;70518;51.400;7.428;2023-09-08T02:40:33;5.25;;;3.28;;
49688;SDS011;70518;51.400;7.428;2023-09-08T02:43:00;5.60;;;3.05;;
49688;SDS011;70518;51.400;7.428;2023-09-08T02:45:25;6.50;;;3.45;;
49688;SDS011;70518;51.400;7.428;2023-09-08T02:47:51;3.90;;;2.90;;
49688;SDS011;70518;51.400;7.428;2023-09-08T02:50:16;4.07;;;3.00;;
49688;SDS011;70518;51.400;7.428;2023-09-08T02:52:41;6.70;;;3.95;;
49688;SDS011;70518;51.400;7.428;2023-09-08T02:55:07;3.47;;;3.10;;
49688;SDS011;70518;51.400;7.428;2023-09-08T02:57:33;5.18;;;3.15;;
49688;SDS011;70518;51.400;7.428;2023-09-08T02:59:58;5.00;;;3.17;;
49688;SDS011;70518;51.400;7.428;2023-09-08T03:02:24;3.60;;;3.20;;
49688;SDS011;70518;51.400;7.428;2023-09-08T03:04:50;4.38;;;3.95;;
49688;SDS011;70518;51.400;7.428;2023-09-08T03:07:16;5.00;;;3.47;;
49688;SDS011;70518;51.400;7.428;2023-09-08T03:09:41;5.15;;;4.10;;
49688;SDS011;70518;51.400;7.428;2023-09-08T03:12:06;7.25;;;3.70;;
49688;SDS011;70518;51.400;7.428;2023-09-08T03:14:32;4.75;;;3.60;;
49688;SDS011;70518;51.400;7.428;2023-09-08T03:16:57;5.00;;;3.63;;
49688;SDS011;70518;51.400;7.428;2023-09-08T03:19:22;5.57;;;3.28;;
49688;SDS011;70518;51.400;7.428;2023-09-08T03:21:47;5.15;;;3.55;;
49688;SDS011;70518;51.400;7.428;2023-09-08T03:24:13;7.25;;;3.78;;
49688;SDS011;70518;51.400;7.428;2023-09-08T03:26:38;4.80;;;4.00;;
49688;SDS011;70518;51.400;7.428;2023-09-08T03:29:05;4.85;;;3.70;;
49688;SDS011;70518;51.400;7.428;2023-09-08T03:31:31;4.38;;;3.20;;
49688;SDS011;70518;51.400;7.428;2023-09-08T03:33:56;8.13;;;4.13;;
49688;SDS011;70518;51.400;7.428;2023-09-08T03:36:21;6.13;;;3.92;;
49688;SDS011;70518;51.400;7.428;2023-09-08T03:38:47;6.18;;;3.83;;
49688;SDS011;70518;51.400;7.428;2023-09-08T03:41:12;5.68;;;3.53;;
49688;SDS011;70518;51.400;7.428;2023-09-08T03:43:37;5.40;;;3.63;;
49688;SDS011;70518;51.400;7.428;2023-09-08T03:46:02;5.00;;;3.88;;
49688;SDS011;70518;51.400;7.428;2023-09-08T03:48:28;5.45;;;3.65;;
49688;SDS011;70518;51.400;7.428;2023-09-08T03:50:53;5.72;;;3.63;;
49688;SDS011;70518;51.400;7.428;2023-09-08T03:53:18;5.32;;;3.67;;
49688;SDS011;70518;51.400;7.428;2023-09-08T03:55:44;5.35;;;3.85;;
49688;SDS011;70518;51.400;7.428;2023-09-08T03:58:09;7.50;;;4.13;;
49688;SDS011;70518;51.400;7.428;2023-09-08T04:00:34;5.30;;;4.18;;
49688;SDS011;70518;51.400;7.428;2023-09-08T04:03:00;5.20;;;3.72;;
49688;SDS011;70518;51.400;7.428;2023-09-08T04:05:25;5.55;;;3.95;;
49688;SDS011;70518;51.400;7.428;2023-09-08T04:07:51;6.00;;;4.22;;
49688;SDS011;70518;51.400;7.428;2023-09-08T04:10:16;5.40;;;3.60;;
49688;SDS011;70518;51.400;7.428;2023-09-08T04:12:42;9.43;;;4.72;;
49688;SDS011;70518;51.400;7.428;2023-09-08T04:15:07;7.18;;;4.15;;
49688;SDS011;70518;51.400;7.428;2023-09-08T04:17:33;7.53;;;4.30;;
49688;SDS011;70518;51.400;7.428;2023-09-08T04:20:00;6.50;;;3.90;;
49688;SDS011;70518;51.400;7.428;2023-09-08T04:22:26;6.35;;;4.20;;
49688;SDS011;70518;51.400;7.428;2023-09-08T04:24:51;5.15;;;4.05;;
49688;SDS011;70518;51.400;7.428;2023-09-08T04:27:19;5.90;;;3.95;;
49688;SDS011;70518;51.400;7.428;2023-09-08T04:29:44;5.55;;;3.78;;
49688;SDS011;70518;51.400;7.428;2023-09-08T04:32:09;5.88;;;3.65;;
49688;SDS011;70518;51.400;7.428;2023-09-08T04:34:38;6.70;;;4.03;;
49688;SDS011;70518;51.400;7.428;2023-09-08T04:37:04;6.00;;;3.80;;
49688;SDS011;70518;51.400;7.428;2023-09-08T04:39:30;6.38;;;4.18;;
49688;SDS011;70518;51.400;7.428;2023-09-08T04:41:55;4.82;;;3.92;;
49688;SDS011;70518;51.400;7.428;2023-09-08T04:44:20;6.63;;;4.20;;
49688;SDS011;70518;51.400;7.428;2023-09-08T04:46:45;6.80;;;4.05;;
49688;SDS011;70518;51.400;7.428;2023-09-08T04:49:11;8.65;;;4.07;;
49688;SDS011;70518;51.400;7.428;2023-09-08T04:51:36;6.72;;;4.07;;
49688;SDS011;70518;51.400;7.428;2023-09-08T04:54:01;6.13;;;3.72;;
49688;SDS011;70518;51.400;7.428;2023-09-08T04:56:27;6.10;;;3.53;;
49688;SDS011;70518;51.400;7.428;2023-09-08T04:58:52;7.25;;;3.95;;
49688;SDS011;70518;51.400;7.428;2023-09-08T05:01:20;7.35;;;4.00;;
49688;SDS011;70518;51.400;7.428;2023-09-08T05:03:45;5.97;;;3.97;;
49688;SDS011;70518;51.400;7.428;2023-09-08T05:06:10;6.63;;;3.88;;
49688;SDS011;70518;51.400;7.428;2023-09-08T05:08:36;6.20;;;3.83;;
49688;SDS011;70518;51.400;7.428;2023-09-08T05:11:01;6.70;;;4.00;;
49688;SDS011;70518;51.400;7.428;2023-09-08T05:13:26;5.80;;;4.13;;
49688;SDS011;70518;51.400;7.428;2023-09-08T05:15:52;6.28;;;4.00;;
49688;SDS011;70518;51.400;7.428;2023-09-08T05:18:24;8.98;;;4.90;;
49688;SDS011;70518;51.400;7.428;2023-09-08T05:20:50;6.20;;;4.18;;
49688;SDS011;70518;51.400;7.428;2023-09-08T05:23:15;6.00;;;4.13;;
49688;SDS011;70518;51.400;7.428;2023-09-08T05:25:41;6.35;;;4.20;;
49688;SDS011;70518;51.400;7.428;2023-09-08T05:28:07;5.85;;;4.10;;
49688;SDS011;70518;51.400;7.428;2023-09-08T05:30:32;5.22;;;3.90;;
49688;SDS011;70518;51.400;7.428;2023-09-08T05:32:58;7.13;;;4.05;;
49688;SDS011;70518;51.400;7.428;2023-09-08T05:35:24;8.05;;;4.70;;
49688;SDS011;70518;51.400;7.428;2023-09-08T05:37:49;5.75;;;4.07;;
49688;SDS011;70518;51.400;7.428;2023-09-08T05:40:14;5.18;;;4.40;;
49688;SDS011;70518;51.400;7.428;2023-09-08T05:42:39;8.05;;;4.57;;
49688;SDS011;70518;51.400;7.428;2023-09-08T05:45:05;7.25;;;4.82;;
49688;SDS011;70518;51.400;7.428;2023-09-08T05:47:31;5.07;;;4.18;;
49688;SDS011;70518;51.400;7.428;2023-09-08T05:49:56;5.65;;;4.53;;
49688;SDS011;70518;51.400;7.428;2023-09-08T05:52:21;6.80;;;4.65;;
49688;SDS011;70518;51.400;7.428;2023-09-08T05:54:46;6.55;;;4.63;;
49688;SDS011;70518;51.400;7.428;2023-09-08T05:57:12;5.65;;;4.65;;
49688;SDS011;70518;51.400;7.428;2023-09-08T05:59:37;8.73;;;4.88;;
49688;SDS011;70518;51.400;7.428;2023-09-08T06:02:02;6.15;;;4.78;;
49688;SDS011;70518;51.400;7.428;2023-09-08T06:04:28;8.13;;;5.10;;
49688;SDS011;70518;51.400;7.428;2023-09-08T06:06:53;8.90;;;4.88;;
49688;SDS011;70518;51.400;7.428;2023-09-08T06:09:18;8.10;;;5.10;;
49688;SDS011;70518;51.400;7.428;2023-09-08T06:11:43;7.03;;;4.95;;
49688;SDS011;70518;51.400;7.428;2023-09-08T06:14:09;8.30;;;4.65;;
49688;SDS011;70518;51.400;7.428;2023-09-08T06:16:34;6.40;;;5.18;;
49688;SDS011;70518;51.400;7.428;2023-09-08T06:19:00;8.10;;;4.68;;
49688;SDS011;70518;51.400;7.428;2023-09-08T06:21:28;9.85;;;5.30;;
49688;SDS011;70518;51.400;7.428;2023-09-08T06:23:53;6.18;;;4.97;;
49688;SDS011;70518;51.400;7.428;2023-09-08T06:26:18;9.38;;;5.50;;
49688;SDS011;70518;51.400;7.428;2023-09-08T06:28:44;7.32;;;4.88;;
49688;SDS011;70518;51.400;7.428;2023-09-08T06:31:10;6.30;;;5.15;;
49688;SDS011;70518;51.400;7.428;2023-09-08T06:33:35;6.35;;;4.88;;
49688;SDS011;70518;51.400;7.428;2023-09-08T06:36:00;7.60;;;5.63;;
49688;SDS011;70518;51.400;7.428;2023-09-08T06:38:26;7.22;;;5.25;;
49688;SDS011;70518;51.400;7.428;2023-09-08T06:40:51;5.97;;;4.78;;
49688;SDS011;70518;51.400;7.428;2023-09-08T06:43:18;9.80;;;6.60;;
49688;SDS011;70518;51.400;7.428;2023-09-08T06:45:46;11.40;;;7.07;;
49688;SDS011;70518;51.400;7.428;2023-09-08T06:48:13;11.97;;;6.87;;
49688;SDS011;70518;51.400;7.428;2023-09-08T06:50:39;9.50;;;6.80;;
49688;SDS011;70518;51.400;7.428;2023-09-08T06:53:04;17.25;;;6.90;;
49688;SDS011;70518;51.400;7.428;2023-09-08T06:55:29;12.98;;;7.03;;
49688;SDS011;70518;51.400;7.428;2023-09-08T06:57:54;9.00;;;6.43;;
49688;SDS011;70518;51.400;7.428;2023-09-08T07:00:20;11.88;;;7.40;;
49688;SDS011;70518;51.400;7.428;2023-09-08T07:02:45;11.35;;;7.60;;
49688;SDS011;70518;51.400;7.428;2023-09-08T07:05:10;12.60;;;7.03;;
49688;SDS011;70518;51.400;7.428;2023-09-08T07:07:36;9.20;;;6.45;;
49688;SDS011;70518;51.400;7.428;2023-09-08T07:10:02;12.80;;;7.18;;
49688;SDS011;70518;51.400;7.428;2023-09-08T07:12:29;10.23;;;7.10;;
49688;SDS011;70518;51.400;7.428;2023-09-08T07:14:54;9.55;;;6.43;;
49688;SDS011;70518;51.400;7.428;2023-09-08T07:17:19;12.35;;;6.57;;
49688;SDS011;70518;51.400;7.428;2023-09-08T07:19:45;11.27;;;7.43;;
49688;SDS011;70518;51.400;7.428;2023-09-08T07:22:10;11.38;;;7.03;;
49688;SDS011;70518;51.400;7.428;2023-09-08T07:24:35;10.70;;;6.25;;
49688;SDS011;70518;51.400;7.428;2023-09-08T07:27:00;11.60;;;6.30;;
49688;SDS011;70518;51.400;7.428;2023-09-08T07:29:26;11.10;;;6.47;;
49688;SDS011;70518;51.400;7.428;2023-09-08T07:31:52;16.52;;;7.30;;
49688;SDS011;70518;51.400;7.428;2023-09-08T07:34:17;13.40;;;6.82;;
49688;SDS011;70518;51.400;7.428;2023-09-08T07:36:42;12.27;;;6.30;;
49688;SDS011;70518;51.400;7.428;2023-09-08T07:39:08;11.10;;;6.20;;
49688;SDS011;70518;51.400;7.428;2023-09-08T07:41:33;13.70;;;5.72;;
49688;SDS011;70518;51.400;7.428;2023-09-08T07:43:59;9.50;;;6.00;;
49688;SDS011;70518;51.400;7.428;2023-09-08T07:46:24;13.60;;;7.20;;
49688;SDS011;70518;51.400;7.428;2023-09-08T07:48:50;10.48;;;6.20;;
49688;SDS011;70518;51.400;7.428;2023-09-08T07:51:15;10.93;;;5.95;;
49688;SDS011;70518;51.400;7.428;2023-09-08T07:53:41;13.43;;;6.35;;
49688;SDS011;70518;51.400;7.428;2023-09-08T07:56:06;14.68;;;6.63;;
49688;SDS011;70518;51.400;7.428;2023-09-08T07:58:31;6.40;;;5.50;;
49688;SDS011;70518;51.400;7.428;2023-09-08T08:00:57;13.95;;;6.07;;
49688;SDS011;70518;51.400;7.428;2023-09-08T08:03:22;10.70;;;5.93;;
49688;SDS011;70518;51.400;7.428;2023-09-08T08:05:47;11.07;;;5.88;;
49688;SDS011;70518;51.400;7.428;2023-09-08T08:08:13;12.82;;;6.35;;
49688;SDS011;70518;51.400;7.428;2023-09-08T08:10:40;11.40;;;6.03;;
49688;SDS011;70518;51.400;7.428;2023-09-08T08:13:06;11.40;;;5.57;;
49688;SDS011;70518;51.400;7.428;2023-09-08T08:15:37;11.95;;;6.13;;
49688;SDS011;70518;51.400;7.428;2023-09-08T08:18:05;11.48;;;6.10;;
49688;SDS011;70518;51.400;7.428;2023-09-08T08:20:31;9.65;;;5.70;;
49688;SDS011;70518;51.400;7.428;2023-09-08T08:23:00;11.82;;;6.00;;
49688;SDS011;70518;51.400;7.428;2023-09-08T08:25:28;17.05;;;6.45;;
49688;SDS011;70518;51.400;7.428;2023-09-08T08:27:54;11.02;;;5.35;;
49688;SDS011;70518;51.400;7.428;2023-09-08T08:30:19;9.88;;;4.63;;
49688;SDS011;70518;51.400;7.428;2023-09-08T08:32:45;8.35;;;4.55;;
49688;SDS011;70518;51.400;7.428;2023-09-08T08:35:10;7.85;;;4.95;;
49688;SDS011;70518;51.400;7.428;2023-09-08T08:37:36;12.60;;;4.93;;
49688;SDS011;70518;51.400;7.428;2023-09-08T08:40:01;12.10;;;4.95;;
49688;SDS011;70518;51.400;7.428;2023-09-08T08:42:31;9.65;;;5.00;;
49688;SDS011;70518;51.400;7.428;2023-09-08T08:44:56;11.82;;;4.53;;
49688;SDS011;70518;51.400;7.428;2023-09-08T08:47:23;10.98;;;4.63;;
49688;SDS011;70518;51.400;7.428;2023-09-08T08:49:50;6.57;;;4.28;;
49688;SDS011;70518;51.400;7.428;2023-09-08T08:52:18;6.85;;;4.10;;
49688;SDS011;70518;51.400;7.428;2023-09-08T08:54:44;39.92;;;7.68;;
49688;SDS011;70518;51.400;7.428;2023-09-08T08:57:10;46.08;;;7.25;;
49688;SDS011;70518;51.400;7.428;2023-09-08T08:59:36;14.43;;;4.88;;
49688;SDS011;70518;51.400;7.428;2023-09-08T09:02:02;8.95;;;4.13;;
49688;SDS011;70518;51.400;7.428;2023-09-08T09:04:30;7.50;;;3.70;;
49688;SDS011;70518;51.400;7.428;2023-09-08T09:06:56;5.45;;;3.70;;
49688;SDS011;70518;51.400;7.428;2023-09-08T09:09:22;9.20;;;3.75;;
49688;SDS011;70518;51.400;7.428;2023-09-08T09:11:49;4.43;;;3.25;;
49688;SDS011;70518;51.400;7.428;2023-09-08T09:14:14;4.57;;;3.05;;
49688;SDS011;70518;51.400;7.428;2023-09-08T09:16:43;5.85;;;2.72;;
49688;SDS011;70518;51.400;7.428;2023-09-08T09:19:08;5.70;;;2.90;;
49688;SDS011;70518;51.400;7.428;2023-09-08T09:21:44;5.97;;;3.38;;
49688;SDS011;70518;51.400;7.428;2023-09-08T09:24:16;6.75;;;3.20;;
49688;SDS011;70518;51.400;7.428;2023-09-08T09:26:42;7.82;;;3.10;;
49688;SDS011;70518;51.400;7.428;2023-09-08T09:29:11;7.18;;;3.05;;
49688;SDS011;70518;51.400;7.428;2023-09-08T09:31:53;5.47;;;3.13;;
49688;SDS011;70518;51.400;7.428;2023-09-08T09:34:19;5.45;;;2.50;;
49688;SDS011;70518;51.400;7.428;2023-09-08T09:36:47;5.25;;;3.20;;
49688;SDS011;70518;51.400;7.428;2023-09-08T09:39:15;11.25;;;3.08;;
49688;SDS011;70518;51.400;7.428;2023-09-08T09:41:42;7.68;;;2.90;;
49688;SDS011;70518;51.400;7.428;2023-09-08T09:44:09;7.07;;;2.83;;
49688;SDS011;70518;51.400;7.428;2023-09-08T09:46:35;3.67;;;2.47;;
49688;SDS011;70518;51.400;7.428;2023-09-08T09:49:01;5.57;;;2.38;;
49688;SDS011;70518;51.400;7.428;2023-09-08T09:51:27;3.80;;;2.78;;
49688;SDS011;70518;51.400;7.428;2023-09-08T09:53:54;3.90;;;2.30;;
49688;SDS011;70518;51.400;7.428;2023-09-08T09:56:20;4.78;;;2.70;;
49688;SDS011;70518;51.400;7.428;2023-09-08T09:58:52;6.78;;;2.60;;
49688;SDS011;70518;51.400;7.428;2023-09-08T10:01:18;5.70;;;2.10;;
49688;SDS011;70518;51.400;7.428;2023-09-08T10:03:44;6.13;;;2.47;;
49688;SDS011;70518;51.400;7.428;2023-09-08T10:06:12;3.60;;;2.50;;
49688;SDS011;70518;51.400;7.428;2023-09-08T10:08:37;3.10;;;2.08;;
49688;SDS011;70518;51.400;7.428;2023-09-08T10:11:05;4.15;;;2.13;;
49688;SDS011;70518;51.400;7.428;2023-09-08T10:13:33;4.22;;;2.47;;
49688;SDS011;70518;51.400;7.428;2023-09-08T10:16:08;2.53;;;2.10;;
49688;SDS011;70518;51.400;7.428;2023-09-08T10:18:35;2.72;;;1.50;;
49688;SDS011;70518;51.400;7.428;2023-09-08T10:21:03;1.92;;;1.40;;
49688;SDS011;70518;51.400;7.428;2023-09-08T10:25:59;3.08;;;1.90;;
49688;SDS011;70518;51.400;7.428;2023-09-08T10:28:29;6.40;;;2.15;;
49688;SDS011;70518;51.400;7.428;2023-09-08T10:30:57;3.63;;;1.48;;
49688;SDS011;70518;51.400;7.428;2023-09-08T10:33:23;2.28;;;1.83;;
49688;SDS011;70518;51.400;7.428;2023-09-08T10:35:49;4.85;;;1.75;;
49688;SDS011;70518;51.400;7.428;2023-09-08T10:38:22;4.25;;;1.38;;
49688;SDS011;70518;51.400;7.428;2023-09-08T10:40:51;3.78;;;1.35;;
49688;SDS011;70518;51.400;7.428;2023-09-08T10:43:17;3.10;;;1.33;;
49688;SDS011;70518;51.400;7.428;2023-09-08T10:45:43;2.70;;;1.40;;
49688;SDS011;70518;51.400;7.428;2023-09-08T10:48:10;2.60;;;1.40;;
49688;SDS011;70518;51.400;7.428;2023-09-08T10:50:39;2.72;;;1.80;;
49688;SDS011;70518;51.400;7.428;2023-09-08T10:53:13;2.20;;;1.60;;
49688;SDS011;70518;51.400;7.428;2023-09-08T10:55:40;4.13;;;1.75;;
49688;SDS011;70518;51.400;7.428;2023-09-08T11:00:59;3.55;;;2.10;;
49688;SDS011;70518;51.400;7.428;2023-09-08T11:03:47;2.42;;;1.52;;
49688;SDS011;70518;51.400;7.428;2023-09-08T11:06:17;3.05;;;1.35;;
49688;SDS011;70518;51.400;7.428;2023-09-08T11:08:44;1.67;;;1.30;;
49688;SDS011;70518;51.400;7.428;2023-09-08T11:11:11;1.75;;;1.33;;
49688;SDS011;70518;51.400;7.428;2023-09-08T11:13:37;3.20;;;1.33;;
49688;SDS011;70518;51.400;7.428;2023-09-08T11:16:04;2.67;;;1.38;;
49688;SDS011;70518;51.400;7.428;2023-09-08T11:18:30;2.13;;;1.23;;
49688;SDS011;70518;51.400;7.428;2023-09-08T11:20:56;2.65;;;1.67;;
49688;SDS011;70518;51.400;7.428;2023-09-08T11:23:23;2.53;;;1.50;;
49688;SDS011;70518;51.400;7.428;2023-09-08T11:25:49;2.35;;;1.45;;
49688;SDS011;70518;51.400;7.428;2023-09-08T11:28:16;3.42;;;1.63;;
49688;SDS011;70518;51.400;7.428;2023-09-08T11:30:42;5.00;;;1.67;;
49688;SDS011;70518;51.400;7.428;2023-09-08T11:33:14;2.83;;;1.67;;
49688;SDS011;70518;51.400;7.428;2023-09-08T11:35:47;2.70;;;1.58;;
49688;SDS011;70518;51.400;7.428;2023-09-08T11:38:12;2.05;;;1.42;;
49688;SDS011;70518;51.400;7.428;2023-09-08T11:40:38;3.00;;;1.80;;
49688;SDS011;70518;51.400;7.428;2023-09-08T11:43:05;2.58;;;1.50;;
49688;SDS011;70518;51.400;7.428;2023-09-08T11:45:31;3.25;;;1.30;;
49688;SDS011;70518;51.400;7.428;2023-09-08T11:47:59;2.53;;;1.40;;
49688;SDS011;70518;51.400;7.428;2023-09-08T11:50:24;2.30;;;1.27;;
49688;SDS011;70518;51.400;7.428;2023-09-08T11:52:51;1.80;;;1.40;;
49688;SDS011;70518;51.400;7.428;2023-09-08T11:55:17;2.65;;;1.38;;
49688;SDS011;70518;51.400;7.428;2023-09-08T11:57:45;1.77;;;1.42;;
49688;SDS011;70518;51.400;7.428;2023-09-08T12:00:16;2.92;;;1.52;;
49688;SDS011;70518;51.400;7.428;2023-09-08T12:02:43;1.58;;;1.27;;
49688;SDS011;70518;51.400;7.428;2023-09-08T12:05:22;4.05;;;1.33;;
49688;SDS011;70518;51.400;7.428;2023-09-08T12:07:52;2.33;;;1.02;;
49688;SDS011;70518;51.400;7.428;2023-09-08T12:10:20;5.90;;;1.45;;
49688;SDS011;70518;51.400;7.428;2023-09-08T12:12:47;2.40;;;1.55;;
49688;SDS011;70518;51.400;7.428;2023-09-08T12:15:33;1.60;;;1.10;;
49688;SDS011;70518;51.400;7.428;2023-09-08T12:18:04;5.57;;;1.98;;
49688;SDS011;70518;51.400;7.428;2023-09-08T12:20:34;1.63;;;1.10;;
49688;SDS011;70518;51.400;7.428;2023-09-08T12:23:15;2.05;;;1.52;;
49688;SDS011;70518;51.400;7.428;2023-09-08T12:25:45;1.65;;;1.20;;
49688;SDS011;70518;51.400;7.428;2023-09-08T12:28:11;1.85;;;1.20;;
49688;SDS011;70518;51.400;7.428;2023-09-08T12:30:36;4.50;;;1.45;;
49688;SDS011;70518;51.400;7.428;2023-09-08T12:33:02;1.73;;;1.40;;
49688;SDS011;70518;51.400;7.428;2023-09-08T12:35:28;4.13;;;1.40;;
49688;SDS011;70518;51.400;7.428;2023-09-08T12:38:01;2.15;;;1.70;;
49688;SDS011;70518;51.400;7.428;2023-09-08T12:40:28;2.15;;;1.38;;
49688;SDS011;70518;51.400;7.428;2023-09-08T12:42:54;4.38;;;1.60;;
49688;SDS011;70518;51.400;7.428;2023-09-08T12:45:20;1.60;;;1.30;;
49688;SDS011;70518;51.400;7.428;2023-09-08T12:47:47;2.08;;;1.30;;
49688;SDS011;70518;51.400;7.428;2023-09-08T12:50:13;3.97;;;1.60;;
49688;SDS011;70518;51.400;7.428;2023-09-08T12:52:38;2.55;;;1.40;;
49688;SDS011;70518;51.400;7.428;2023-09-08T12:55:04;4.10;;;1.23;;
49688;SDS011;70518;51.400;7.428;2023-09-08T12:57:29;2.95;;;1.20;;
49688;SDS011;70518;51.400;7.428;2023-09-08T12:59:55;2.17;;;1.20;;
49688;SDS011;70518;51.400;7.428;2023-09-08T13:02:20;1.98;;;1.42;;
49688;SDS011;70518;51.400;7.428;2023-09-08T13:04:45;2.67;;;1.40;;
49688;SDS011;70518;51.400;7.428;2023-09-08T13:07:13;1.85;;;1.33;;
49688;SDS011;70518;51.400;7.428;2023-09-08T13:09:42;4.87;;;1.30;;
49688;SDS011;70518;51.400;7.428;2023-09-08T13:12:08;1.92;;;1.50;;
49688;SDS011;70518;51.400;7.428;2023-09-08T13:14:34;3.10;;;1.40;;
49688;SDS011;70518;51.400;7.428;2023-09-08T13:17:00;1.45;;;1.15;;
49688;SDS011;70518;51.400;7.428;2023-09-08T13:19:25;2.50;;;1.20;;
49688;SDS011;70518;51.400;7.428;2023-09-08T13:21:50;2.63;;;1.10;;
49688;SDS011;70518;51.400;7.428;2023-09-08T13:24:16;2.85;;;1.83;;
49688;SDS011;70518;51.400;7.428;2023-09-08T13:26:41;1.77;;;1.42;;
49688;SDS011;70518;51.400;7.428;2023-09-08T13:29:06;2.30;;;1.30;;
49688;SDS011;70518;51.400;7.428;2023-09-08T13:31:32;3.67;;;1.70;;
49688;SDS011;70518;51.400;7.428;2023-09-08T13:33:57;1.83;;;1.23;;
49688;SDS011;70518;51.400;7.428;2023-09-08T13:36:22;2.70;;;1.40;;
49688;SDS011;70518;51.400;7.428;2023-09-08T13:38:47;2.58;;;1.20;;
49688;SDS011;70518;51.400;7.428;2023-09-08T13:41:13;2.53;;;1.40;;
49688;SDS011;70518;51.400;7.428;2023-09-08T13:43:38;2.33;;;1.45;;
49688;SDS011;70518;51.400;7.428;2023-09-08T13:46:03;1.45;;;1.20;;
49688;SDS011;70518;51.400;7.428;2023-09-08T13:48:28;3.55;;;1.30;;
49688;SDS011;70518;51.400;7.428;2023-09-08T13:50:54;2.75;;;1.30;;
49688;SDS011;70518;51.400;7.428;2023-09-08T13:53:19;2.13;;;1.30;;
49688;SDS011;70518;51.400;7.428;2023-09-08T13:55:44;2.30;;;1.48;;
49688;SDS011;70518;51.400;7.428;2023-09-08T13:58:09;2.38;;;1.58;;
49688;SDS011;70518;51.400;7.428;2023-09-08T14:00:36;3.70;;;1.35;;
49688;SDS011;70518;51.400;7.428;2023-09-08T14:03:02;5.63;;;1.85;;
49688;SDS011;70518;51.400;7.428;2023-09-08T14:05:28;11.48;;;1.92;;
49688;SDS011;70518;51.400;7.428;2023-09-08T14:07:53;4.57;;;1.45;;
49688;SDS011;70518;51.400;7.428;2023-09-08T14:10:19;3.30;;;1.30;;
49688;SDS011;70518;51.400;7.428;2023-09-08T14:12:44;2.15;;;1.33;;
49688;SDS011;70518;51.400;7.428;2023-09-08T14:15:09;5.55;;;1.88;;
49688;SDS011;70518;51.400;7.428;2023-09-08T14:17:35;1.80;;;1.20;;
49688;SDS011;70518;51.400;7.428;2023-09-08T14:20:00;3.00;;;1.30;;
49688;SDS011;70518;51.400;7.428;2023-09-08T14:22:25;1.92;;;1.10;;
49688;SDS011;70518;51.400;7.428;2023-09-08T14:24:51;2.20;;;1.48;;
49688;SDS011;70518;51.400;7.428;2023-09-08T14:27:16;1.92;;;1.13;;
49688;SDS011;70518;51.400;7.428;2023-09-08T14:29:42;2.63;;;1.45;;
49688;SDS011;70518;51.400;7.428;2023-09-08T14:32:07;1.73;;;1.30;;
49688;SDS011;70518;51.400;7.428;2023-09-08T14:34:32;1.60;;;1.00;;
49688;SDS011;70518;51.400;7.428;2023-09-08T14:36:57;4.03;;;1.35;;
49688;SDS011;70518;51.400;7.428;2023-09-08T14:39:23;2.78;;;1.50;;
49688;SDS011;70518;51.400;7.428;2023-09-08T14:41:48;3.53;;;1.30;;
49688;SDS011;70518;51.400;7.428;2023-09-08T14:44:18;1.60;;;1.20;;
49688;SDS011;70518;51.400;7.428;2023-09-08T14:46:45;1.77;;;1.55;;
49688;SDS011;70518;51.400;7.428;2023-09-08T14:49:11;3.03;;;1.30;;
49688;SDS011;70518;51.400;7.428;2023-09-08T14:51:39;2.63;;;1.50;;